sensor_id;sensor_type;location;lat;lon;timestamp;P1;durP1;ratioP1;P2;durP2;ratioP2
75096;SDS011;63684;47.964;11.186;2024-03-23T00:53:36;3.27;;;1.23;;
75096;SDS011;63684;47.964;11.186;2024-03-23T00:56:02;1.53;;;1.43;;
75096;SDS011;63684;47.964;11.186;2024-03-23T00:58:29;2.73;;;1.37;;
75096;SDS011;63684;47.964;11.186;2024-03-23T01:00:54;2.60;;;1.60;;
75096;SDS011;63684;47.964;11.186;2024-03-23T01:03:21;4.40;;;2.10;;
75096;SDS011;63684;47.964;11.186;2024-03-23T01:05:51;3.40;;;1.50;;
75096;SDS011;63684;47.964;11.186;2024-03-23T01:08:23;7.30;;;1.33;;
75096;SDS011;63684;47.964;11.186;2024-03-23T01:11:01;2.57;;;1.30;;
75096;SDS011;63684;47.964;11.186;2024-03-23T01:13:31;2.40;;;1.57;;
75096;SDS011;63684;47.964;11.186;2024-03-23T01:15:57;4.20;;;1.80;;
75096;SDS011;63684;47.964;11.186;2024-03-23T01:18:23;2.23;;;1.60;;
75096;SDS011;63684;47.964;11.186;2024-03-23T01:20:49;5.13;;;3.50;;
75096;SDS011;63684;47.964;11.186;2024-03-23T01:23:15;8.17;;;3.20;;
75096;SDS011;63684;47.964;11.186;2024-03-23T01:25:40;2.87;;;2.00;;
75096;SDS011;63684;47.964;11.186;2024-03-23T01:28:06;3.17;;;1.40;;
75096;SDS011;63684;47.964;11.186;2024-03-23T01:30:32;2.10;;;1.67;;
75096;SDS011;63684;47.964;11.186;2024-03-23T01:32:58;2.27;;;1.60;;
75096;SDS011;63684;47.964;11.186;2024-03-23T01:35:24;1.60;;;1.30;;
75096;SDS011;63684;47.964;11.186;2024-03-23T01:37:50;2.50;;;1.40;;
75096;SDS011;63684;47.964;11.186;2024-03-23T01:40:19;1.57;;;1.27;;
75096;SDS011;63684;47.964;11.186;2024-03-23T01:43:06;2.90;;;1.60;;
75096;SDS011;63684;47.964;11.186;2024-03-23T01:45:31;2.50;;;1.43;;
75096;SDS011;63684;47.964;11.186;2024-03-23T01:47:57;2.40;;;1.40;;
75096;SDS011;63684;47.964;11.186;2024-03-23T01:50:24;3.17;;;1.73;;
75096;SDS011;63684;47.964;11.186;2024-03-23T01:52:50;2.67;;;1.60;;
75096;SDS011;63684;47.964;11.186;2024-03-23T01:55:16;2.20;;;1.50;;
75096;SDS011;63684;47.964;11.186;2024-03-23T01:57:41;2.77;;;1.53;;
75096;SDS011;63684;47.964;11.186;2024-03-23T02:00:07;1.60;;;1.50;;
75096;SDS011;63684;47.964;11.186;2024-03-23T02:02:44;3.00;;;1.73;;
75096;SDS011;63684;47.964;11.186;2024-03-23T02:05:10;2.07;;;1.30;;
75096;SDS011;63684;47.964;11.186;2024-03-23T02:07:37;2.20;;;1.30;;
75096;SDS011;63684;47.964;11.186;2024-03-23T02:10:04;3.83;;;1.70;;
75096;SDS011;63684;47.964;11.186;2024-03-23T02:12:30;4.00;;;1.87;;
75096;SDS011;63684;47.964;11.186;2024-03-23T02:14:56;4.43;;;1.70;;
75096;SDS011;63684;47.964;11.186;2024-03-23T02:17:22;3.77;;;1.70;;
75096;SDS011;63684;47.964;11.186;2024-03-23T02:19:47;3.00;;;2.00;;
75096;SDS011;63684;47.964;11.186;2024-03-23T02:22:13;2.57;;;1.80;;
75096;SDS011;63684;47.964;11.186;2024-03-23T02:24:41;5.40;;;1.60;;
75096;SDS011;63684;47.964;11.186;2024-03-23T02:27:06;2.57;;;1.70;;
75096;SDS011;63684;47.964;11.186;2024-03-23T02:29:32;6.67;;;1.93;;
75096;SDS011;63684;47.964;11.186;2024-03-23T02:31:57;3.97;;;1.60;;
75096;SDS011;63684;47.964;11.186;2024-03-23T02:34:24;1.70;;;1.37;;
75096;SDS011;63684;47.964;11.186;2024-03-23T02:36:50;3.97;;;1.93;;
75096;SDS011;63684;47.964;11.186;2024-03-23T02:39:15;2.23;;;1.30;;
75096;SDS011;63684;47.964;11.186;2024-03-23T02:41:41;2.20;;;1.60;;
75096;SDS011;63684;47.964;11.186;2024-03-23T02:44:06;4.57;;;1.40;;
75096;SDS011;63684;47.964;11.186;2024-03-23T02:46:33;3.23;;;1.70;;
75096;SDS011;63684;47.964;11.186;2024-03-23T02:48:58;2.93;;;1.57;;
75096;SDS011;63684;47.964;11.186;2024-03-23T02:51:24;4.37;;;1.80;;
75096;SDS011;63684;47.964;11.186;2024-03-23T02:53:49;3.67;;;1.67;;
75096;SDS011;63684;47.964;11.186;2024-03-23T02:56:15;3.90;;;1.67;;
75096;SDS011;63684;47.964;11.186;2024-03-23T02:58:44;3.43;;;1.87;;
75096;SDS011;63684;47.964;11.186;2024-03-23T03:01:10;2.47;;;1.70;;
75096;SDS011;63684;47.964;11.186;2024-03-23T03:03:35;2.17;;;1.50;;
75096;SDS011;63684;47.964;11.186;2024-03-23T03:06:01;2.70;;;1.47;;
75096;SDS011;63684;47.964;11.186;2024-03-23T03:08:26;3.03;;;1.77;;
75096;SDS011;63684;47.964;11.186;2024-03-23T03:10:52;2.30;;;1.57;;
75096;SDS011;63684;47.964;11.186;2024-03-23T03:13:17;2.17;;;1.47;;
75096;SDS011;63684;47.964;11.186;2024-03-23T03:15:43;3.50;;;1.80;;
75096;SDS011;63684;47.964;11.186;2024-03-23T03:18:09;2.83;;;1.60;;
75096;SDS011;63684;47.964;11.186;2024-03-23T03:20:38;4.13;;;2.20;;
75096;SDS011;63684;47.964;11.186;2024-03-23T03:23:07;4.70;;;1.77;;
75096;SDS011;63684;47.964;11.186;2024-03-23T03:25:33;1.93;;;1.60;;
75096;SDS011;63684;47.964;11.186;2024-03-23T03:27:59;3.27;;;1.80;;
75096;SDS011;63684;47.964;11.186;2024-03-23T03:30:24;2.17;;;1.43;;
75096;SDS011;63684;47.964;11.186;2024-03-23T03:32:53;2.13;;;1.67;;
75096;SDS011;63684;47.964;11.186;2024-03-23T03:35:18;2.30;;;1.50;;
75096;SDS011;63684;47.964;11.186;2024-03-23T03:37:44;1.73;;;1.60;;
75096;SDS011;63684;47.964;11.186;2024-03-23T03:40:10;2.23;;;1.63;;
75096;SDS011;63684;47.964;11.186;2024-03-23T03:42:37;2.33;;;1.60;;
75096;SDS011;63684;47.964;11.186;2024-03-23T03:45:03;4.17;;;1.60;;
75096;SDS011;63684;47.964;11.186;2024-03-23T03:47:29;3.80;;;1.80;;
75096;SDS011;63684;47.964;11.186;2024-03-23T03:49:55;1.50;;;1.40;;
75096;SDS011;63684;47.964;11.186;2024-03-23T03:52:21;1.57;;;1.40;;
75096;SDS011;63684;47.964;11.186;2024-03-23T03:54:46;1.37;;;1.27;;
75096;SDS011;63684;47.964;11.186;2024-03-23T03:57:12;3.67;;;1.60;;
75096;SDS011;63684;47.964;11.186;2024-03-23T03:59:38;1.63;;;1.40;;
75096;SDS011;63684;47.964;11.186;2024-03-23T04:02:03;1.80;;;1.23;;
75096;SDS011;63684;47.964;11.186;2024-03-23T04:04:29;3.03;;;1.67;;
75096;SDS011;63684;47.964;11.186;2024-03-23T04:06:58;2.47;;;1.40;;
75096;SDS011;63684;47.964;11.186;2024-03-23T04:09:27;1.60;;;1.30;;
75096;SDS011;63684;47.964;11.186;2024-03-23T04:11:52;4.87;;;1.53;;
75096;SDS011;63684;47.964;11.186;2024-03-23T04:14:18;1.40;;;1.20;;
75096;SDS011;63684;47.964;11.186;2024-03-23T04:16:43;2.00;;;1.80;;
75096;SDS011;63684;47.964;11.186;2024-03-23T04:19:09;2.57;;;1.33;;
75096;SDS011;63684;47.964;11.186;2024-03-23T04:21:35;1.83;;;1.30;;
75096;SDS011;63684;47.964;11.186;2024-03-23T04:24:02;2.67;;;1.43;;
75096;SDS011;63684;47.964;11.186;2024-03-23T04:26:28;2.03;;;1.20;;
75096;SDS011;63684;47.964;11.186;2024-03-23T04:28:53;1.50;;;1.10;;
75096;SDS011;63684;47.964;11.186;2024-03-23T04:31:19;1.67;;;1.17;;
75096;SDS011;63684;47.964;11.186;2024-03-23T04:33:44;3.20;;;1.50;;
75096;SDS011;63684;47.964;11.186;2024-03-23T04:36:10;1.20;;;1.10;;
75096;SDS011;63684;47.964;11.186;2024-03-23T04:38:36;1.37;;;1.17;;
75096;SDS011;63684;47.964;11.186;2024-03-23T04:41:01;2.27;;;1.33;;
75096;SDS011;63684;47.964;11.186;2024-03-23T04:43:27;3.87;;;1.40;;
75096;SDS011;63684;47.964;11.186;2024-03-23T04:45:52;2.57;;;1.50;;
75096;SDS011;63684;47.964;11.186;2024-03-23T04:48:20;4.93;;;1.20;;
75096;SDS011;63684;47.964;11.186;2024-03-23T04:50:46;1.77;;;1.37;;
75096;SDS011;63684;47.964;11.186;2024-03-23T04:53:12;2.27;;;1.20;;
75096;SDS011;63684;47.964;11.186;2024-03-23T04:55:38;1.37;;;0.80;;
75096;SDS011;63684;47.964;11.186;2024-03-23T04:58:03;2.37;;;1.27;;
75096;SDS011;63684;47.964;11.186;2024-03-23T05:00:29;3.80;;;1.30;;
75096;SDS011;63684;47.964;11.186;2024-03-23T05:02:55;1.67;;;1.30;;
75096;SDS011;63684;47.964;11.186;2024-03-23T05:05:20;2.53;;;1.50;;
75096;SDS011;63684;47.964;11.186;2024-03-23T05:07:46;1.40;;;1.17;;
75096;SDS011;63684;47.964;11.186;2024-03-23T05:10:11;1.70;;;1.20;;
75096;SDS011;63684;47.964;11.186;2024-03-23T05:12:38;1.80;;;1.20;;
75096;SDS011;63684;47.964;11.186;2024-03-23T05:15:05;2.83;;;1.20;;
75096;SDS011;63684;47.964;11.186;2024-03-23T05:17:34;1.93;;;1.20;;
75096;SDS011;63684;47.964;11.186;2024-03-23T05:19:59;1.60;;;1.10;;
75096;SDS011;63684;47.964;11.186;2024-03-23T05:22:25;1.67;;;1.07;;
75096;SDS011;63684;47.964;11.186;2024-03-23T05:24:52;1.00;;;0.90;;
75096;SDS011;63684;47.964;11.186;2024-03-23T05:27:18;1.83;;;0.93;;
75096;SDS011;63684;47.964;11.186;2024-03-23T05:29:44;1.93;;;1.20;;
75096;SDS011;63684;47.964;11.186;2024-03-23T05:32:09;1.83;;;1.23;;
75096;SDS011;63684;47.964;11.186;2024-03-23T05:34:35;1.50;;;1.40;;
75096;SDS011;63684;47.964;11.186;2024-03-23T05:37:00;3.57;;;1.20;;
75096;SDS011;63684;47.964;11.186;2024-03-23T05:39:26;2.10;;;1.00;;
75096;SDS011;63684;47.964;11.186;2024-03-23T05:41:51;3.23;;;1.00;;
75096;SDS011;63684;47.964;11.186;2024-03-23T05:44:17;1.00;;;0.90;;
75096;SDS011;63684;47.964;11.186;2024-03-23T05:46:43;2.40;;;1.33;;
75096;SDS011;63684;47.964;11.186;2024-03-23T05:49:13;1.70;;;1.00;;
75096;SDS011;63684;47.964;11.186;2024-03-23T05:51:39;2.93;;;0.90;;
75096;SDS011;63684;47.964;11.186;2024-03-23T05:54:05;1.20;;;1.10;;
75096;SDS011;63684;47.964;11.186;2024-03-23T05:56:30;1.50;;;1.00;;
75096;SDS011;63684;47.964;11.186;2024-03-23T05:58:56;1.53;;;0.83;;
75096;SDS011;63684;47.964;11.186;2024-03-23T06:01:22;4.03;;;0.93;;
75096;SDS011;63684;47.964;11.186;2024-03-23T06:03:48;3.27;;;1.10;;
75096;SDS011;63684;47.964;11.186;2024-03-23T06:06:13;3.90;;;0.90;;
75096;SDS011;63684;47.964;11.186;2024-03-23T06:08:39;2.13;;;0.90;;
75096;SDS011;63684;47.964;11.186;2024-03-23T06:11:04;4.07;;;1.30;;
75096;SDS011;63684;47.964;11.186;2024-03-23T06:13:31;2.10;;;1.10;;
75096;SDS011;63684;47.964;11.186;2024-03-23T06:15:57;1.37;;;1.00;;
75096;SDS011;63684;47.964;11.186;2024-03-23T06:18:24;2.70;;;0.90;;
75096;SDS011;63684;47.964;11.186;2024-03-23T06:20:49;1.93;;;1.00;;
75096;SDS011;63684;47.964;11.186;2024-03-23T06:23:15;2.90;;;1.10;;
75096;SDS011;63684;47.964;11.186;2024-03-23T06:25:42;2.37;;;1.17;;
75096;SDS011;63684;47.964;11.186;2024-03-23T06:28:08;1.27;;;1.00;;
75096;SDS011;63684;47.964;11.186;2024-03-23T06:30:33;1.87;;;0.80;;
75096;SDS011;63684;47.964;11.186;2024-03-23T06:32:59;3.83;;;1.73;;
75096;SDS011;63684;47.964;11.186;2024-03-23T06:35:25;1.27;;;1.10;;
75096;SDS011;63684;47.964;11.186;2024-03-23T06:37:50;3.47;;;1.10;;
75096;SDS011;63684;47.964;11.186;2024-03-23T06:40:16;1.27;;;0.93;;
75096;SDS011;63684;47.964;11.186;2024-03-23T06:42:41;2.00;;;0.90;;
75096;SDS011;63684;47.964;11.186;2024-03-23T06:45:07;2.10;;;1.10;;
75096;SDS011;63684;47.964;11.186;2024-03-23T06:47:33;2.43;;;0.93;;
75096;SDS011;63684;47.964;11.186;2024-03-23T06:49:59;1.30;;;0.90;;
75096;SDS011;63684;47.964;11.186;2024-03-23T06:52:28;1.07;;;0.90;;
75096;SDS011;63684;47.964;11.186;2024-03-23T06:54:54;3.70;;;1.20;;
75096;SDS011;63684;47.964;11.186;2024-03-23T06:57:19;1.83;;;0.90;;
75096;SDS011;63684;47.964;11.186;2024-03-23T06:59:45;3.37;;;1.00;;
75096;SDS011;63684;47.964;11.186;2024-03-23T07:02:10;1.10;;;1.00;;
75096;SDS011;63684;47.964;11.186;2024-03-23T07:04:36;4.40;;;1.30;;
75096;SDS011;63684;47.964;11.186;2024-03-23T07:07:04;2.20;;;1.10;;
75096;SDS011;63684;47.964;11.186;2024-03-23T07:09:30;1.97;;;1.27;;
75096;SDS011;63684;47.964;11.186;2024-03-23T07:11:56;3.33;;;1.20;;
75096;SDS011;63684;47.964;11.186;2024-03-23T07:14:22;2.43;;;1.57;;
75096;SDS011;63684;47.964;11.186;2024-03-23T07:16:48;2.47;;;1.23;;
75096;SDS011;63684;47.964;11.186;2024-03-23T07:19:15;1.83;;;1.27;;
75096;SDS011;63684;47.964;11.186;2024-03-23T07:21:44;3.60;;;1.27;;
75096;SDS011;63684;47.964;11.186;2024-03-23T07:24:10;1.77;;;1.40;;
75096;SDS011;63684;47.964;11.186;2024-03-23T07:26:36;2.87;;;1.37;;
75096;SDS011;63684;47.964;11.186;2024-03-23T07:29:03;4.07;;;1.60;;
75096;SDS011;63684;47.964;11.186;2024-03-23T07:31:31;2.90;;;1.80;;
75096;SDS011;63684;47.964;11.186;2024-03-23T07:33:57;1.83;;;1.50;;
75096;SDS011;63684;47.964;11.186;2024-03-23T07:36:23;3.30;;;1.60;;
75096;SDS011;63684;47.964;11.186;2024-03-23T07:38:48;2.57;;;2.17;;
75096;SDS011;63684;47.964;11.186;2024-03-23T07:41:15;2.63;;;1.33;;
75096;SDS011;63684;47.964;11.186;2024-03-23T07:43:45;2.97;;;2.03;;
75096;SDS011;63684;47.964;11.186;2024-03-23T07:46:11;3.40;;;1.60;;
75096;SDS011;63684;47.964;11.186;2024-03-23T07:48:37;2.00;;;1.20;;
75096;SDS011;63684;47.964;11.186;2024-03-23T07:51:07;1.63;;;1.53;;
75096;SDS011;63684;47.964;11.186;2024-03-23T07:53:34;1.40;;;1.20;;
75096;SDS011;63684;47.964;11.186;2024-03-23T07:56:07;1.73;;;1.13;;
75096;SDS011;63684;47.964;11.186;2024-03-23T07:58:34;3.17;;;1.67;;
75096;SDS011;63684;47.964;11.186;2024-03-23T08:01:07;1.80;;;1.27;;
75096;SDS011;63684;47.964;11.186;2024-03-23T08:03:34;1.00;;;0.87;;
75096;SDS011;63684;47.964;11.186;2024-03-23T08:06:10;1.80;;;1.20;;
75096;SDS011;63684;47.964;11.186;2024-03-23T08:08:40;1.47;;;1.30;;
75096;SDS011;63684;47.964;11.186;2024-03-23T08:11:09;2.40;;;1.17;;
75096;SDS011;63684;47.964;11.186;2024-03-23T08:13:35;2.00;;;1.00;;
75096;SDS011;63684;47.964;11.186;2024-03-23T08:16:02;2.17;;;1.50;;
75096;SDS011;63684;47.964;11.186;2024-03-23T08:18:28;1.33;;;1.20;;
75096;SDS011;63684;47.964;11.186;2024-03-23T08:23:29;1.93;;;1.27;;
75096;SDS011;63684;47.964;11.186;2024-03-23T08:26:15;1.30;;;1.20;;
75096;SDS011;63684;47.964;11.186;2024-03-23T08:28:41;1.47;;;1.07;;
75096;SDS011;63684;47.964;11.186;2024-03-23T08:31:07;5.20;;;1.17;;
75096;SDS011;63684;47.964;11.186;2024-03-23T08:33:34;1.60;;;1.27;;
75096;SDS011;63684;47.964;11.186;2024-03-23T08:36:00;7.00;;;1.03;;
75096;SDS011;63684;47.964;11.186;2024-03-23T08:38:33;1.47;;;1.07;;
75096;SDS011;63684;47.964;11.186;2024-03-23T08:40:59;4.17;;;1.20;;
75096;SDS011;63684;47.964;11.186;2024-03-23T08:43:32;5.13;;;1.40;;
75096;SDS011;63684;47.964;11.186;2024-03-23T08:46:03;2.00;;;1.10;;
75096;SDS011;63684;47.964;11.186;2024-03-23T08:48:30;2.43;;;1.50;;
75096;SDS011;63684;47.964;11.186;2024-03-23T08:51:02;2.43;;;1.20;;
75096;SDS011;63684;47.964;11.186;2024-03-23T08:53:29;18.00;;;3.23;;
75096;SDS011;63684;47.964;11.186;2024-03-23T08:55:55;2.97;;;1.27;;
75096;SDS011;63684;47.964;11.186;2024-03-23T08:58:23;2.37;;;1.40;;
75096;SDS011;63684;47.964;11.186;2024-03-23T09:00:49;1.60;;;1.50;;
75096;SDS011;63684;47.964;11.186;2024-03-23T09:03:15;1.90;;;1.50;;
75096;SDS011;63684;47.964;11.186;2024-03-23T09:05:41;3.97;;;1.73;;
75096;SDS011;63684;47.964;11.186;2024-03-23T09:08:07;3.27;;;1.60;;
75096;SDS011;63684;47.964;11.186;2024-03-23T09:10:39;4.03;;;1.63;;
75096;SDS011;63684;47.964;11.186;2024-03-23T09:13:05;2.00;;;1.20;;
75096;SDS011;63684;47.964;11.186;2024-03-23T09:15:32;3.87;;;1.50;;
75096;SDS011;63684;47.964;11.186;2024-03-23T09:17:59;1.80;;;1.67;;
75096;SDS011;63684;47.964;11.186;2024-03-23T09:20:25;4.37;;;2.47;;
75096;SDS011;63684;47.964;11.186;2024-03-23T09:22:50;2.40;;;2.20;;
75096;SDS011;63684;47.964;11.186;2024-03-23T09:25:16;4.33;;;2.50;;
75096;SDS011;63684;47.964;11.186;2024-03-23T09:27:41;2.70;;;2.00;;
75096;SDS011;63684;47.964;11.186;2024-03-23T09:30:07;3.37;;;2.00;;
75096;SDS011;63684;47.964;11.186;2024-03-23T09:32:33;1.03;;;0.93;;
75096;SDS011;63684;47.964;11.186;2024-03-23T09:34:58;2.77;;;1.30;;
75096;SDS011;63684;47.964;11.186;2024-03-23T09:37:24;1.67;;;0.67;;
75096;SDS011;63684;47.964;11.186;2024-03-23T09:39:49;1.43;;;0.60;;
75096;SDS011;63684;47.964;11.186;2024-03-23T09:42:15;0.70;;;0.70;;
75096;SDS011;63684;47.964;11.186;2024-03-23T09:44:41;1.27;;;0.57;;
75096;SDS011;63684;47.964;11.186;2024-03-23T09:47:07;2.80;;;1.43;;
75096;SDS011;63684;47.964;11.186;2024-03-23T09:49:33;0.90;;;0.60;;
75096;SDS011;63684;47.964;11.186;2024-03-23T09:52:02;1.60;;;0.80;;
75096;SDS011;63684;47.964;11.186;2024-03-23T09:54:28;0.80;;;0.80;;
75096;SDS011;63684;47.964;11.186;2024-03-23T09:56:53;0.60;;;0.60;;
75096;SDS011;63684;47.964;11.186;2024-03-23T09:59:19;1.13;;;1.07;;
75096;SDS011;63684;47.964;11.186;2024-03-23T10:01:44;1.63;;;0.90;;
75096;SDS011;63684;47.964;11.186;2024-03-23T10:04:10;1.90;;;0.90;;
75096;SDS011;63684;47.964;11.186;2024-03-23T10:06:37;0.70;;;0.70;;
75096;SDS011;63684;47.964;11.186;2024-03-23T10:09:02;1.30;;;0.80;;
75096;SDS011;63684;47.964;11.186;2024-03-23T10:11:42;0.60;;;0.60;;
75096;SDS011;63684;47.964;11.186;2024-03-23T10:14:09;1.10;;;0.80;;
75096;SDS011;63684;47.964;11.186;2024-03-23T10:16:35;1.03;;;0.73;;
75096;SDS011;63684;47.964;11.186;2024-03-23T10:19:00;1.10;;;1.00;;
75096;SDS011;63684;47.964;11.186;2024-03-23T10:21:26;1.90;;;0.80;;
75096;SDS011;63684;47.964;11.186;2024-03-23T10:23:51;0.80;;;0.70;;
75096;SDS011;63684;47.964;11.186;2024-03-23T10:26:18;0.90;;;0.80;;
75096;SDS011;63684;47.964;11.186;2024-03-23T10:28:51;0.50;;;0.50;;
75096;SDS011;63684;47.964;11.186;2024-03-23T10:31:17;2.30;;;0.77;;
75096;SDS011;63684;47.964;11.186;2024-03-23T10:33:48;0.80;;;0.80;;
75096;SDS011;63684;47.964;11.186;2024-03-23T10:36:15;1.30;;;0.50;;
75096;SDS011;63684;47.964;11.186;2024-03-23T10:38:41;0.80;;;0.67;;
75096;SDS011;63684;47.964;11.186;2024-03-23T10:41:10;0.53;;;0.53;;
75096;SDS011;63684;47.964;11.186;2024-03-23T10:43:37;0.50;;;0.50;;
75096;SDS011;63684;47.964;11.186;2024-03-23T10:46:03;0.73;;;0.50;;
75096;SDS011;63684;47.964;11.186;2024-03-23T10:48:29;0.43;;;0.43;;
75096;SDS011;63684;47.964;11.186;2024-03-23T10:50:55;1.10;;;0.40;;
75096;SDS011;63684;47.964;11.186;2024-03-23T10:53:27;0.63;;;0.50;;
75096;SDS011;63684;47.964;11.186;2024-03-23T10:55:54;2.90;;;0.70;;
75096;SDS011;63684;47.964;11.186;2024-03-23T10:58:24;1.70;;;0.80;;
75096;SDS011;63684;47.964;11.186;2024-03-23T11:00:53;1.07;;;0.70;;
75096;SDS011;63684;47.964;11.186;2024-03-23T11:06:06;0.77;;;0.77;;
75096;SDS011;63684;47.964;11.186;2024-03-23T11:08:37;3.57;;;1.10;;
75096;SDS011;63684;47.964;11.186;2024-03-23T11:11:22;2.50;;;1.20;;
75096;SDS011;63684;47.964;11.186;2024-03-23T11:13:53;2.63;;;1.20;;
75096;SDS011;63684;47.964;11.186;2024-03-23T11:16:23;2.13;;;1.40;;
75096;SDS011;63684;47.964;11.186;2024-03-23T11:18:49;1.93;;;1.20;;
75096;SDS011;63684;47.964;11.186;2024-03-23T11:24:21;3.90;;;1.57;;
75096;SDS011;63684;47.964;11.186;2024-03-23T11:26:48;3.90;;;1.23;;
75096;SDS011;63684;47.964;11.186;2024-03-23T11:29:14;3.47;;;1.10;;
75096;SDS011;63684;47.964;11.186;2024-03-23T11:34:16;2.60;;;1.30;;
75096;SDS011;63684;47.964;11.186;2024-03-23T11:36:45;2.07;;;1.30;;
75096;SDS011;63684;47.964;11.186;2024-03-23T11:39:20;2.30;;;1.10;;
75096;SDS011;63684;47.964;11.186;2024-03-23T11:44:22;3.10;;;1.73;;
75096;SDS011;63684;47.964;11.186;2024-03-23T11:46:48;2.43;;;1.37;;
75096;SDS011;63684;47.964;11.186;2024-03-23T11:49:21;2.20;;;1.00;;
75096;SDS011;63684;47.964;11.186;2024-03-23T11:51:50;1.23;;;1.00;;
75096;SDS011;63684;47.964;11.186;2024-03-23T11:54:25;2.33;;;1.47;;
75096;SDS011;63684;47.964;11.186;2024-03-23T11:59:39;1.47;;;1.20;;
75096;SDS011;63684;47.964;11.186;2024-03-23T12:02:12;1.87;;;1.10;;
75096;SDS011;63684;47.964;11.186;2024-03-23T12:04:41;6.70;;;1.47;;
75096;SDS011;63684;47.964;11.186;2024-03-23T12:07:10;2.50;;;1.23;;
75096;SDS011;63684;47.964;11.186;2024-03-23T12:09:40;2.23;;;1.30;;
75096;SDS011;63684;47.964;11.186;2024-03-23T12:12:10;2.70;;;1.60;;
75096;SDS011;63684;47.964;11.186;2024-03-23T12:14:39;2.80;;;1.30;;
75096;SDS011;63684;47.964;11.186;2024-03-23T12:17:11;3.97;;;1.40;;
75096;SDS011;63684;47.964;11.186;2024-03-23T12:19:38;2.43;;;1.37;;
75096;SDS011;63684;47.964;11.186;2024-03-23T12:22:04;4.10;;;1.33;;
75096;SDS011;63684;47.964;11.186;2024-03-23T12:24:31;4.07;;;1.40;;
75096;SDS011;63684;47.964;11.186;2024-03-23T12:27:03;1.67;;;1.33;;
75096;SDS011;63684;47.964;11.186;2024-03-23T12:29:32;2.40;;;1.47;;
75096;SDS011;63684;47.964;11.186;2024-03-23T12:32:00;2.30;;;1.20;;
75096;SDS011;63684;47.964;11.186;2024-03-23T12:34:26;2.33;;;1.50;;
75096;SDS011;63684;47.964;11.186;2024-03-23T12:36:52;2.73;;;1.87;;
75096;SDS011;63684;47.964;11.186;2024-03-23T12:39:18;2.03;;;1.70;;
75096;SDS011;63684;47.964;11.186;2024-03-23T12:41:45;2.13;;;1.50;;
75096;SDS011;63684;47.964;11.186;2024-03-23T12:44:11;2.33;;;1.57;;
75096;SDS011;63684;47.964;11.186;2024-03-23T12:46:40;2.90;;;1.40;;
75096;SDS011;63684;47.964;11.186;2024-03-23T12:49:06;3.83;;;1.50;;
75096;SDS011;63684;47.964;11.186;2024-03-23T12:51:32;2.53;;;1.27;;
75096;SDS011;63684;47.964;11.186;2024-03-23T12:53:58;3.20;;;1.67;;
75096;SDS011;63684;47.964;11.186;2024-03-23T12:56:23;2.70;;;1.43;;
75096;SDS011;63684;47.964;11.186;2024-03-23T12:58:49;4.30;;;1.77;;
75096;SDS011;63684;47.964;11.186;2024-03-23T13:01:19;3.97;;;1.63;;
75096;SDS011;63684;47.964;11.186;2024-03-23T13:03:48;3.43;;;2.00;;
75096;SDS011;63684;47.964;11.186;2024-03-23T13:06:15;2.50;;;1.60;;
75096;SDS011;63684;47.964;11.186;2024-03-23T13:08:44;2.40;;;1.30;;
75096;SDS011;63684;47.964;11.186;2024-03-23T13:11:10;3.03;;;2.00;;
75096;SDS011;63684;47.964;11.186;2024-03-23T13:13:37;4.60;;;1.67;;
75096;SDS011;63684;47.964;11.186;2024-03-23T13:16:03;4.37;;;1.30;;
75096;SDS011;63684;47.964;11.186;2024-03-23T13:18:30;2.43;;;1.60;;
75096;SDS011;63684;47.964;11.186;2024-03-23T13:20:56;3.33;;;1.40;;
75096;SDS011;63684;47.964;11.186;2024-03-23T13:23:22;4.80;;;1.47;;
75096;SDS011;63684;47.964;11.186;2024-03-23T13:25:51;2.60;;;1.37;;
75096;SDS011;63684;47.964;11.186;2024-03-23T13:28:20;6.03;;;1.43;;
75096;SDS011;63684;47.964;11.186;2024-03-23T13:30:53;2.37;;;1.20;;
75096;SDS011;63684;47.964;11.186;2024-03-23T13:33:19;3.07;;;1.40;;
75096;SDS011;63684;47.964;11.186;2024-03-23T13:35:51;2.17;;;1.60;;
75096;SDS011;63684;47.964;11.186;2024-03-23T13:38:23;4.63;;;1.60;;
75096;SDS011;63684;47.964;11.186;2024-03-23T13:40:58;2.63;;;1.53;;
75096;SDS011;63684;47.964;11.186;2024-03-23T13:43:25;2.77;;;1.37;;
75096;SDS011;63684;47.964;11.186;2024-03-23T13:45:57;1.73;;;1.37;;
75096;SDS011;63684;47.964;11.186;2024-03-23T13:48:25;6.40;;;1.50;;
75096;SDS011;63684;47.964;11.186;2024-03-23T13:50:59;3.87;;;1.83;;
75096;SDS011;63684;47.964;11.186;2024-03-23T13:53:25;3.30;;;1.37;;
75096;SDS011;63684;47.964;11.186;2024-03-23T13:55:50;3.27;;;1.47;;
75096;SDS011;63684;47.964;11.186;2024-03-23T13:58:16;7.13;;;4.63;;
75096;SDS011;63684;47.964;11.186;2024-03-23T14:00:42;3.73;;;1.50;;
75096;SDS011;63684;47.964;11.186;2024-03-23T14:03:08;1.90;;;1.20;;
75096;SDS011;63684;47.964;11.186;2024-03-23T14:05:34;2.07;;;1.27;;
75096;SDS011;63684;47.964;11.186;2024-03-23T14:08:00;2.57;;;0.87;;
75096;SDS011;63684;47.964;11.186;2024-03-23T14:10:26;1.57;;;1.10;;
75096;SDS011;63684;47.964;11.186;2024-03-23T14:12:52;5.77;;;1.50;;
75096;SDS011;63684;47.964;11.186;2024-03-23T14:15:18;2.90;;;1.80;;
75096;SDS011;63684;47.964;11.186;2024-03-23T14:17:44;5.03;;;2.47;;
75096;SDS011;63684;47.964;11.186;2024-03-23T14:20:09;6.97;;;2.70;;
75096;SDS011;63684;47.964;11.186;2024-03-23T14:22:36;8.33;;;2.37;;
75096;SDS011;63684;47.964;11.186;2024-03-23T14:25:02;10.10;;;3.57;;
75096;SDS011;63684;47.964;11.186;2024-03-23T14:27:28;7.33;;;3.03;;
75096;SDS011;63684;47.964;11.186;2024-03-23T14:29:54;9.63;;;2.97;;
75096;SDS011;63684;47.964;11.186;2024-03-23T14:32:21;13.20;;;2.97;;
75096;SDS011;63684;47.964;11.186;2024-03-23T14:34:47;5.90;;;2.50;;
75096;SDS011;63684;47.964;11.186;2024-03-23T14:37:12;13.63;;;3.03;;
75096;SDS011;63684;47.964;11.186;2024-03-23T14:39:38;14.57;;;4.37;;
75096;SDS011;63684;47.964;11.186;2024-03-23T14:42:06;6.97;;;3.77;;
75096;SDS011;63684;47.964;11.186;2024-03-23T14:44:33;10.20;;;5.60;;
75096;SDS011;63684;47.964;11.186;2024-03-23T14:46:59;9.90;;;4.37;;
75096;SDS011;63684;47.964;11.186;2024-03-23T14:49:25;6.83;;;3.27;;
75096;SDS011;63684;47.964;11.186;2024-03-23T14:51:51;8.30;;;3.17;;
75096;SDS011;63684;47.964;11.186;2024-03-23T14:54:16;16.00;;;4.47;;
75096;SDS011;63684;47.964;11.186;2024-03-23T14:56:42;6.53;;;3.37;;
75096;SDS011;63684;47.964;11.186;2024-03-23T14:59:08;4.03;;;2.53;;
75096;SDS011;63684;47.964;11.186;2024-03-23T15:01:33;9.60;;;3.30;;
75096;SDS011;63684;47.964;11.186;2024-03-23T15:03:59;7.70;;;3.33;;
75096;SDS011;63684;47.964;11.186;2024-03-23T15:06:25;8.07;;;3.80;;
75096;SDS011;63684;47.964;11.186;2024-03-23T15:08:51;9.23;;;3.47;;
75096;SDS011;63684;47.964;11.186;2024-03-23T15:11:16;7.90;;;3.40;;
75096;SDS011;63684;47.964;11.186;2024-03-23T15:13:44;9.77;;;3.67;;
75096;SDS011;63684;47.964;11.186;2024-03-23T15:16:09;8.50;;;3.27;;
75096;SDS011;63684;47.964;11.186;2024-03-23T15:18:35;8.10;;;3.10;;
75096;SDS011;63684;47.964;11.186;2024-03-23T15:21:03;6.13;;;2.80;;
75096;SDS011;63684;47.964;11.186;2024-03-23T15:23:32;6.00;;;2.47;;
75096;SDS011;63684;47.964;11.186;2024-03-23T15:25:58;11.47;;;3.33;;
75096;SDS011;63684;47.964;11.186;2024-03-23T15:28:25;4.53;;;2.83;;
75096;SDS011;63684;47.964;11.186;2024-03-23T15:31:07;3.63;;;2.50;;
75096;SDS011;63684;47.964;11.186;2024-03-23T15:33:34;6.80;;;2.77;;
75096;SDS011;63684;47.964;11.186;2024-03-23T15:36:00;5.37;;;2.80;;
75096;SDS011;63684;47.964;11.186;2024-03-23T15:38:28;8.83;;;3.30;;
75096;SDS011;63684;47.964;11.186;2024-03-23T15:40:54;5.37;;;2.63;;